createdAt,value
2023-04-14T00:00:38.346Z,4.95
2023-04-14T00:01:20.289Z,4.96
2023-04-14T00:02:02.010Z,4.63
2023-04-14T00:02:43.870Z,4.99
2023-04-14T00:03:25.887Z,4.96
2023-04-14T00:04:07.936Z,4.85
2023-04-14T00:04:53.526Z,4.70
2023-04-14T00:05:35.458Z,4.90
2023-04-14T00:06:17.384Z,4.76
2023-04-14T00:07:00.031Z,4.81
2023-04-14T00:07:41.857Z,4.86
2023-04-14T00:08:23.647Z,4.77
2023-04-14T00:09:05.325Z,4.83
2023-04-14T00:09:47.113Z,4.79
2023-04-14T00:10:28.803Z,4.81
2023-04-14T00:11:10.700Z,4.80
2023-04-14T00:11:52.762Z,4.79
2023-04-14T00:12:34.433Z,4.72
2023-04-14T00:13:16.100Z,4.72
2023-04-14T00:13:58.224Z,4.72
2023-04-14T00:14:39.864Z,4.87
2023-04-14T00:15:21.963Z,4.90
2023-04-14T00:16:06.124Z,4.87
2023-04-14T00:16:47.855Z,4.82
2023-04-14T00:17:31.150Z,4.89
2023-04-14T00:18:12.878Z,4.83
2023-04-14T00:18:54.547Z,4.72
2023-04-14T00:19:36.169Z,4.69
2023-04-14T00:20:17.770Z,4.86
2023-04-14T00:20:59.458Z,4.73
2023-04-14T00:21:41.233Z,4.82
2023-04-14T00:22:22.962Z,4.81
2023-04-14T00:23:04.689Z,4.91
2023-04-14T00:23:46.297Z,4.87
2023-04-14T00:24:27.924Z,4.88
2023-04-14T00:25:09.992Z,4.78
2023-04-14T00:25:51.684Z,4.83
2023-04-14T00:26:33.435Z,4.78
2023-04-14T00:27:15.705Z,4.67
2023-04-14T00:27:57.337Z,4.61
2023-04-14T00:28:39.031Z,4.53
2023-04-14T00:29:20.819Z,4.52
2023-04-14T00:30:02.496Z,4.41
2023-04-14T00:30:45.509Z,4.46
2023-04-14T00:31:27.365Z,4.44
2023-04-14T00:32:09.047Z,4.39
2023-04-14T00:32:50.839Z,4.37
2023-04-14T00:33:32.637Z,4.25
2023-04-14T00:34:16.469Z,4.28
2023-04-14T00:35:00.108Z,4.29
2023-04-14T00:35:41.823Z,4.37
2023-04-14T00:36:23.557Z,4.37
2023-04-14T00:37:05.259Z,4.38
2023-04-14T00:37:47.024Z,4.45
2023-04-14T00:38:28.719Z,4.43
2023-04-14T00:39:10.622Z,4.43
2023-04-14T00:39:52.340Z,4.42
2023-04-14T00:40:34.033Z,4.42
2023-04-14T00:41:15.698Z,4.47
2023-04-14T00:41:57.423Z,4.38
2023-04-14T00:42:45.632Z,4.49
2023-04-14T00:43:27.418Z,4.50
2023-04-14T00:44:09.717Z,4.53
2023-04-14T00:44:51.358Z,4.51
2023-04-14T00:45:44.715Z,4.49
2023-04-14T00:46:26.592Z,4.48
2023-04-14T00:47:08.193Z,4.47
2023-04-14T00:47:50.772Z,4.46
2023-04-14T00:48:32.771Z,4.43
2023-04-14T00:49:15.562Z,4.36
2023-04-14T00:49:58.396Z,4.41
2023-04-14T00:50:40.302Z,4.27
2023-04-14T00:51:23.577Z,4.35
2023-04-14T00:52:06.020Z,3.97
2023-04-14T00:52:50.067Z,4.30
2023-04-14T00:53:32.711Z,4.21
2023-04-14T00:54:17.478Z,4.24
2023-04-14T00:55:00.786Z,4.34
2023-04-14T00:55:42.980Z,4.33
2023-04-14T00:56:26.483Z,4.33
2023-04-14T00:57:09.337Z,4.21
2023-04-14T00:57:51.136Z,4.28
2023-04-14T00:58:32.834Z,4.26
2023-04-14T00:59:16.882Z,4.14
2023-04-14T01:00:00.761Z,4.22
2023-04-14T01:00:42.635Z,4.22
2023-04-14T01:01:49.238Z,4.21
2023-04-14T01:02:34.147Z,4.14
2023-04-14T01:03:16.603Z,4.16
2023-04-14T01:03:58.576Z,4.11
2023-04-14T01:04:52.892Z,4.05
2023-04-14T01:05:36.277Z,4.08
2023-04-14T01:06:17.865Z,4.04
2023-04-14T01:06:59.473Z,4.02
2023-04-14T01:07:41.578Z,3.97
2023-04-14T01:08:24.966Z,3.93
2023-04-14T01:09:07.028Z,3.90
2023-04-14T01:09:50.171Z,3.84
2023-04-14T01:10:41.240Z,3.84
2023-04-14T01:11:40.131Z,3.75
2023-04-14T01:12:30.596Z,3.80
2023-04-14T01:13:35.961Z,3.76
2023-04-14T01:14:42.890Z,3.73
2023-04-14T01:15:35.558Z,3.73
2023-04-14T01:16:31.829Z,3.75
2023-04-14T01:17:52.572Z,3.83
2023-04-14T01:18:43.256Z,3.91
2023-04-14T01:19:24.787Z,3.97
2023-04-14T01:20:32.976Z,4.03
2023-04-14T01:21:22.804Z,4.07
2023-04-14T01:22:06.287Z,4.10
2023-04-14T01:22:54.204Z,4.10
2023-04-14T01:23:41.861Z,4.11
2023-04-14T01:24:39.784Z,4.14
2023-04-14T01:25:39.547Z,4.17
2023-04-14T01:26:31.910Z,4.17
2023-04-14T01:27:35.307Z,4.17
2023-04-14T01:28:55.543Z,4.14
2023-04-14T01:29:55.442Z,4.14
2023-04-14T01:30:58.618Z,4.07
2023-04-14T01:31:55.234Z,4.13
2023-04-14T01:32:43.028Z,4.08
2023-04-14T01:33:26.953Z,4.00
2023-04-14T01:34:34.864Z,3.86
2023-04-14T01:35:26.333Z,3.75
2023-04-14T01:36:22.439Z,3.69
2023-04-14T01:37:31.493Z,3.66
2023-04-14T01:38:22.347Z,3.58
2023-04-14T01:39:08.329Z,3.57
2023-04-14T01:39:53.836Z,3.47
2023-04-14T01:40:41.222Z,3.44
2023-04-14T01:41:24.183Z,3.57
2023-04-14T01:42:11.273Z,3.46
2023-04-14T01:43:02.194Z,3.37
2023-04-14T01:43:47.987Z,3.52
2023-04-14T01:44:31.545Z,3.52
2023-04-14T01:45:23.043Z,3.50
2023-04-14T01:46:07.404Z,3.56
2023-04-14T01:46:55.052Z,3.56
2023-04-14T01:47:37.968Z,3.43
2023-04-14T01:48:20.158Z,3.58
2023-04-14T01:49:02.838Z,3.58
2023-04-14T01:49:45.721Z,3.69
2023-04-14T01:50:28.518Z,3.20
2023-04-14T01:51:13.515Z,3.81
2023-04-14T01:51:55.736Z,3.88
2023-04-14T01:52:39.316Z,3.93
2023-04-14T01:53:23.040Z,3.98
2023-04-14T01:54:06.103Z,4.02
2023-04-14T01:54:50.827Z,4.05
2023-04-14T01:55:36.084Z,4.01
2023-04-14T01:56:19.930Z,4.07
2023-04-14T01:57:03.752Z,4.10
2023-04-14T01:57:48.297Z,4.04
2023-04-14T01:58:32.145Z,3.99
2023-04-14T01:59:15.571Z,4.12
2023-04-14T02:00:00.946Z,4.07
2023-04-14T02:00:44.222Z,4.13
2023-04-14T02:01:27.831Z,4.14
2023-04-14T02:02:12.831Z,4.13
2023-04-14T02:02:55.814Z,4.01
2023-04-14T02:03:39.442Z,4.21
2023-04-14T02:04:25.536Z,4.16
2023-04-14T02:05:09.916Z,4.23
2023-04-14T02:05:55.388Z,4.20
2023-04-14T02:06:38.872Z,4.23
2023-04-14T02:07:22.040Z,4.24
2023-04-14T02:08:07.455Z,4.20
2023-04-14T02:08:50.913Z,4.19
2023-04-14T02:09:34.020Z,4.18
2023-04-14T02:10:19.942Z,4.23
2023-04-14T02:11:02.498Z,4.27
2023-04-14T02:11:49.002Z,4.28
2023-04-14T02:12:31.420Z,4.32
2023-04-14T02:13:14.371Z,4.33
2023-04-14T02:13:56.631Z,4.31
2023-04-14T02:14:42.584Z,4.29
2023-04-14T02:15:26.176Z,4.25
2023-04-14T02:16:10.852Z,3.92
2023-04-14T02:16:54.156Z,4.26
2023-04-14T02:17:36.717Z,4.22
2023-04-14T02:18:22.156Z,4.21
2023-04-14T02:19:05.185Z,4.21
2023-04-14T02:19:48.574Z,4.07
2023-04-14T02:20:30.452Z,4.17
2023-04-14T02:21:15.232Z,4.17
2023-04-14T02:21:58.602Z,4.16
2023-04-14T02:22:40.432Z,4.16
2023-04-14T02:23:22.034Z,4.17
2023-04-14T02:24:03.895Z,4.09
2023-04-14T02:24:47.747Z,4.19
2023-04-14T02:25:33.623Z,4.23
2023-04-14T02:26:18.639Z,4.15
2023-04-14T02:27:10.568Z,4.13
2023-04-14T02:27:58.674Z,4.06
2023-04-14T02:28:50.069Z,4.00
2023-04-14T02:29:33.758Z,3.93
2023-04-14T02:30:20.100Z,3.86
2023-04-14T02:31:07.429Z,3.89
2023-04-14T02:32:09.594Z,3.90
2023-04-14T02:32:57.351Z,3.88
2023-04-14T02:33:39.939Z,3.92
2023-04-14T02:34:25.249Z,3.86
2023-04-14T02:35:13.575Z,3.95
2023-04-14T02:36:04.446Z,3.89
2023-04-14T02:36:52.376Z,3.83
2023-04-14T02:37:41.417Z,3.71
2023-04-14T02:38:33.672Z,3.74
2023-04-14T02:39:19.375Z,3.70
2023-04-14T02:40:05.955Z,3.75
2023-04-14T02:40:48.826Z,3.75
2023-04-14T02:41:32.723Z,3.83
2023-04-14T02:42:16.297Z,3.85
2023-04-14T02:43:02.918Z,3.73
2023-04-14T02:43:49.244Z,3.87
2023-04-14T02:44:35.486Z,3.80
2023-04-14T02:45:22.525Z,3.32
2023-04-14T02:46:06.456Z,3.63
2023-04-14T02:46:57.779Z,3.46
2023-04-14T02:47:47.055Z,3.44
2023-04-14T02:48:32.444Z,3.42
2023-04-14T02:49:16.443Z,3.38
2023-04-14T02:50:00.463Z,3.28
2023-04-14T02:50:46.426Z,3.18
2023-04-14T02:51:35.632Z,3.10
2023-04-14T02:52:19.195Z,3.20
2023-04-14T02:53:03.675Z,3.17
2023-04-14T02:53:50.721Z,3.16
2023-04-14T02:54:46.538Z,3.14
2023-04-14T02:55:29.616Z,3.06
2023-04-14T02:56:12.116Z,3.12
2023-04-14T02:56:57.443Z,3.10
2023-04-14T02:57:41.176Z,3.02
2023-04-14T02:58:25.495Z,3.11
2023-04-14T02:59:07.814Z,3.11
2023-04-14T02:59:52.618Z,3.15
2023-04-14T03:00:35.660Z,3.21
2023-04-14T03:01:19.274Z,3.28
2023-04-14T03:02:06.015Z,3.17
2023-04-14T03:02:53.328Z,3.42
2023-04-14T03:03:37.654Z,3.50
2023-04-14T03:04:23.542Z,3.56
2023-04-14T03:05:06.707Z,3.42
2023-04-14T03:05:57.238Z,3.57
2023-04-14T03:06:39.550Z,3.70
2023-04-14T03:07:21.883Z,3.74
2023-04-14T03:08:05.138Z,3.73
2023-04-14T03:08:47.848Z,3.77
2023-04-14T03:09:32.043Z,3.82
2023-04-14T03:10:14.665Z,3.83
2023-04-14T03:10:57.203Z,3.82
2023-04-14T03:11:42.226Z,3.83
2023-04-14T03:12:25.337Z,3.84
2023-04-14T03:13:07.879Z,3.75
2023-04-14T03:13:53.702Z,3.74
2023-04-14T03:14:37.474Z,3.70
2023-04-14T03:15:21.641Z,3.60
2023-04-14T03:16:04.240Z,3.63
2023-04-14T03:16:49.498Z,3.51
2023-04-14T03:17:32.784Z,3.59
2023-04-14T03:18:15.739Z,3.50
2023-04-14T03:18:58.341Z,3.47
2023-04-14T03:19:41.696Z,3.37
2023-04-14T03:20:23.838Z,3.31
2023-04-14T03:21:07.548Z,3.23
2023-04-14T03:21:54.644Z,3.01
2023-04-14T03:22:40.720Z,3.10
2023-04-14T03:23:27.366Z,3.03
2023-04-14T03:24:18.042Z,3.00
2023-04-14T03:25:00.675Z,2.99
2023-04-14T03:25:46.526Z,2.96
2023-04-14T03:26:36.945Z,2.98
2023-04-14T03:27:26.212Z,3.03
2023-04-14T03:28:15.921Z,3.05
2023-04-14T03:29:02.447Z,3.16
2023-04-14T03:29:48.554Z,3.23
2023-04-14T03:30:33.740Z,3.15
2023-04-14T03:31:19.045Z,3.33
2023-04-14T03:32:06.985Z,3.35
2023-04-14T03:32:52.518Z,3.39
2023-04-14T03:33:35.621Z,3.33
2023-04-14T03:34:19.087Z,3.46
2023-04-14T03:35:07.787Z,3.49
2023-04-14T03:35:52.787Z,3.39
2023-04-14T03:36:36.605Z,3.52
2023-04-14T03:37:24.305Z,3.45
2023-04-14T03:38:09.727Z,3.35
2023-04-14T03:38:55.341Z,3.45
2023-04-14T03:39:39.155Z,3.43
2023-04-14T03:40:23.898Z,3.33
2023-04-14T03:41:07.375Z,3.46
2023-04-14T03:41:51.706Z,3.33
2023-04-14T03:42:36.322Z,2.10
2023-04-14T03:43:22.416Z,3.25
2023-04-14T03:44:15.618Z,3.20
2023-04-14T03:45:01.578Z,3.13
2023-04-14T03:45:49.192Z,3.07
2023-04-14T03:46:31.377Z,2.96
2023-04-14T03:47:14.452Z,2.94
2023-04-14T03:48:02.576Z,2.82
2023-04-14T03:48:50.381Z,2.80
2023-04-14T03:49:33.310Z,2.73
2023-04-14T03:50:17.464Z,2.64
2023-04-14T03:51:02.155Z,2.68
2023-04-14T03:51:49.537Z,2.69
2023-04-14T03:52:36.187Z,2.71
2023-04-14T03:53:19.369Z,2.76
2023-04-14T03:54:03.014Z,2.77
2023-04-14T03:54:45.900Z,2.78
2023-04-14T03:55:31.847Z,2.81
2023-04-14T03:56:15.490Z,2.83
2023-04-14T03:56:58.992Z,2.89
2023-04-14T03:57:43.936Z,2.93
2023-04-14T03:58:29.308Z,2.95
2023-04-14T03:59:15.301Z,2.98
2023-04-14T04:00:00.212Z,3.00
2023-04-14T04:00:43.003Z,3.00
2023-04-14T04:01:26.849Z,2.91
2023-04-14T04:02:09.748Z,2.94
2023-04-14T04:02:52.319Z,2.84
2023-04-14T04:03:36.839Z,2.76
2023-04-14T04:04:19.177Z,2.72
2023-04-14T04:05:01.924Z,2.58
2023-04-14T04:05:44.764Z,2.58
2023-04-14T04:06:27.709Z,2.51
2023-04-14T04:07:13.142Z,2.32
2023-04-14T04:07:58.711Z,2.44
2023-04-14T04:08:41.655Z,2.40
2023-04-14T04:09:25.254Z,2.49
2023-04-14T04:10:08.203Z,2.57
2023-04-14T04:10:51.400Z,2.50
2023-04-14T04:11:34.969Z,2.55
2023-04-14T04:12:20.432Z,2.66
2023-04-14T04:13:03.238Z,2.72
2023-04-14T04:13:48.372Z,2.58
2023-04-14T04:14:32.015Z,2.77
2023-04-14T04:15:13.849Z,2.78
2023-04-14T04:15:58.460Z,2.84
2023-04-14T04:16:42.558Z,2.82
2023-04-14T04:17:26.411Z,2.86
2023-04-14T04:18:10.976Z,2.72
2023-04-14T04:18:54.622Z,2.84
2023-04-14T04:19:44.651Z,2.96
2023-04-14T04:20:27.142Z,2.90
2023-04-14T04:21:10.431Z,2.96
2023-04-14T04:21:57.444Z,2.90
2023-04-14T04:22:41.888Z,3.08
2023-04-14T04:23:25.680Z,2.81
2023-04-14T04:24:10.267Z,3.10
2023-04-14T04:24:54.666Z,3.04
2023-04-14T04:25:41.560Z,3.07
2023-04-14T04:26:31.373Z,3.15
2023-04-14T04:27:26.681Z,3.01
2023-04-14T04:28:12.737Z,3.12
2023-04-14T04:28:57.934Z,3.12
2023-04-14T04:29:40.807Z,3.18
2023-04-14T04:30:24.015Z,2.90
2023-04-14T04:31:06.733Z,3.19
2023-04-14T04:31:48.553Z,3.20
2023-04-14T04:32:30.858Z,3.05
2023-04-14T04:33:13.956Z,3.21
2023-04-14T04:33:58.795Z,3.19
2023-04-14T04:34:41.251Z,3.25
2023-04-14T04:35:24.624Z,3.19
2023-04-14T04:36:07.379Z,3.27
2023-04-14T04:36:54.565Z,3.24
2023-04-14T04:37:39.194Z,3.22
2023-04-14T04:38:20.996Z,3.31
2023-04-14T04:39:03.317Z,3.21
2023-04-14T04:39:49.167Z,3.35
2023-04-14T04:40:38.577Z,3.36
2023-04-14T04:41:28.354Z,3.41
2023-04-14T04:42:11.917Z,3.11
2023-04-14T04:42:53.503Z,3.33
2023-04-14T04:43:35.412Z,2.91
2023-04-14T04:44:17.165Z,3.19
2023-04-14T04:44:58.953Z,3.27
2023-04-14T04:45:59.039Z,3.23
2023-04-14T04:46:55.388Z,3.19
2023-04-14T04:47:40.271Z,3.22
2023-04-14T04:48:21.867Z,3.08
2023-04-14T04:49:03.684Z,3.11
2023-04-14T04:49:45.331Z,3.23
2023-04-14T04:50:26.887Z,3.16
2023-04-14T04:51:08.514Z,3.19
2023-04-14T04:51:50.257Z,3.18
2023-04-14T04:52:33.598Z,3.15
2023-04-14T04:53:15.439Z,3.11
2023-04-14T04:53:57.014Z,3.11
2023-04-14T04:54:38.602Z,3.14
2023-04-14T04:55:21.075Z,2.91
2023-04-14T04:56:02.865Z,3.04
2023-04-14T04:56:44.470Z,3.10
2023-04-14T04:57:26.071Z,3.11
2023-04-14T04:58:11.174Z,3.02
2023-04-14T04:58:53.250Z,3.06
2023-04-14T04:59:36.606Z,3.04
2023-04-14T05:00:22.811Z,2.84
2023-04-14T05:01:09.372Z,2.99
2023-04-14T05:01:51.447Z,2.97
2023-04-14T05:02:33.302Z,2.60
2023-04-14T05:03:15.025Z,2.98
2023-04-14T05:03:56.996Z,2.98
2023-04-14T05:04:38.669Z,2.95
2023-04-14T05:05:20.481Z,2.92
2023-04-14T05:06:02.371Z,3.09
2023-04-14T05:06:43.939Z,2.70
2023-04-14T05:07:25.497Z,3.04
2023-04-14T05:08:07.759Z,3.15
2023-04-14T05:08:53.492Z,3.19
2023-04-14T05:09:35.392Z,3.22
2023-04-14T05:10:17.144Z,3.07
2023-04-14T05:10:58.899Z,3.17
2023-04-14T05:11:41.462Z,3.10
2023-04-14T05:12:23.192Z,3.03
2023-04-14T05:13:04.817Z,3.07
2023-04-14T05:13:46.873Z,3.01
2023-04-14T05:14:28.450Z,3.01
2023-04-14T05:15:10.898Z,2.98
2023-04-14T05:15:53.084Z,2.81
2023-04-14T05:16:34.743Z,2.93
2023-04-14T05:17:16.337Z,2.82
2023-04-14T05:17:59.130Z,2.96
2023-04-14T05:18:42.014Z,2.92
2023-04-14T05:19:23.653Z,2.87
2023-04-14T05:20:05.850Z,3.01
2023-04-14T05:20:47.506Z,3.07
2023-04-14T05:21:29.102Z,2.97
2023-04-14T05:22:10.935Z,3.11
2023-04-14T05:22:53.201Z,3.07
2023-04-14T05:23:37.398Z,3.11
2023-04-14T05:24:18.958Z,3.03
2023-04-14T05:25:01.307Z,3.13
2023-04-14T05:25:42.946Z,3.03
2023-04-14T05:27:14.077Z,3.17
2023-04-14T05:27:56.308Z,3.09
2023-04-14T05:28:38.217Z,3.09
2023-04-14T05:29:20.128Z,3.19
2023-04-14T05:30:01.930Z,3.06
2023-04-14T05:30:43.488Z,3.11
2023-04-14T05:31:25.461Z,3.25
2023-04-14T05:32:07.406Z,3.01
2023-04-14T05:32:49.116Z,3.25
2023-04-14T05:33:30.989Z,3.17
2023-04-14T05:34:12.628Z,3.33
2023-04-14T05:34:54.235Z,3.35
2023-04-14T05:35:36.098Z,3.32
2023-04-14T05:36:17.780Z,3.30
2023-04-14T05:36:59.473Z,3.32
2023-04-14T05:37:41.104Z,3.15
2023-04-14T05:38:22.825Z,3.43
2023-04-14T05:39:04.588Z,3.22
2023-04-14T05:39:46.237Z,3.48
2023-04-14T05:40:28.478Z,3.44
2023-04-14T05:41:10.220Z,3.47
2023-04-14T05:41:51.873Z,3.20
2023-04-14T05:42:33.448Z,3.11
2023-04-14T05:43:16.068Z,3.04
2023-04-14T05:43:57.719Z,3.41
2023-04-14T05:44:39.355Z,3.41
2023-04-14T05:45:21.112Z,3.41
2023-04-14T05:46:02.826Z,3.39
2023-04-14T05:46:44.512Z,3.36
2023-04-14T05:47:26.455Z,3.31
2023-04-14T05:48:08.542Z,3.37
2023-04-14T05:48:50.200Z,3.45
2023-04-14T05:49:31.857Z,3.51
2023-04-14T05:50:13.626Z,3.55
2023-04-14T05:50:55.412Z,3.53
2023-04-14T05:51:36.964Z,3.62
2023-04-14T05:52:18.587Z,3.68
2023-04-14T05:53:00.177Z,3.58
2023-04-14T05:53:41.751Z,3.75
2023-04-14T05:54:23.408Z,3.70
2023-04-14T05:55:05.354Z,3.75
2023-04-14T05:55:48.705Z,3.87
2023-04-14T05:56:30.556Z,3.94
2023-04-14T05:57:12.170Z,3.86
2023-04-14T05:57:53.778Z,4.04
2023-04-14T05:58:35.399Z,4.09
2023-04-14T05:59:17.353Z,4.14
2023-04-14T05:59:59.027Z,4.18
2023-04-14T06:00:40.773Z,4.22
2023-04-14T06:01:22.350Z,4.27
2023-04-14T06:02:07.298Z,4.18
2023-04-14T06:02:49.372Z,4.34
2023-04-14T06:03:31.924Z,4.43
2023-04-14T06:04:13.898Z,4.48
2023-04-14T06:04:56.304Z,4.41
2023-04-14T06:05:37.923Z,4.57
2023-04-14T06:06:22.476Z,4.49
2023-04-14T06:07:04.152Z,4.64
2023-04-14T06:07:46.976Z,4.69
2023-04-14T06:08:30.352Z,4.49
2023-04-14T06:09:12.022Z,4.76
2023-04-14T06:09:54.140Z,4.64
2023-04-14T06:10:35.837Z,4.69
2023-04-14T06:11:17.497Z,4.88
2023-04-14T06:11:59.209Z,4.94
2023-04-14T06:12:40.941Z,4.93
2023-04-14T06:13:22.974Z,4.95
2023-04-14T06:14:05.551Z,5.02
2023-04-14T06:14:47.207Z,5.05
2023-04-14T06:15:29.607Z,5.11
2023-04-14T06:16:11.184Z,5.14
2023-04-14T06:16:52.911Z,5.09
2023-04-14T06:17:35.363Z,5.19
2023-04-14T06:18:17.062Z,5.21
2023-04-14T06:18:58.854Z,5.17
2023-04-14T06:19:40.725Z,5.29
2023-04-14T06:20:22.380Z,5.33
2023-04-14T06:21:04.274Z,5.34
2023-04-14T06:21:47.041Z,5.29
2023-04-14T06:22:32.458Z,5.25
2023-04-14T06:23:14.123Z,5.23
2023-04-14T06:23:55.968Z,5.03
2023-04-14T06:24:37.606Z,5.26
2023-04-14T06:25:19.330Z,5.37
2023-04-14T06:26:01.289Z,5.40
2023-04-14T06:26:43.082Z,5.56
2023-04-14T06:27:25.285Z,5.64
2023-04-14T06:28:07.504Z,5.52
2023-04-14T06:28:49.160Z,5.74
2023-04-14T06:29:31.035Z,5.59
2023-04-14T06:30:15.300Z,5.67
2023-04-14T06:30:57.006Z,5.63
2023-04-14T06:31:38.728Z,5.61
2023-04-14T06:32:20.544Z,5.59
2023-04-14T06:33:04.701Z,5.50
2023-04-14T06:33:46.596Z,5.61
2023-04-14T06:34:28.189Z,5.64
2023-04-14T06:35:19.118Z,5.58
2023-04-14T06:36:04.127Z,5.63
2023-04-14T06:36:45.683Z,5.50
2023-04-14T06:37:27.290Z,5.60
2023-04-14T06:38:09.082Z,5.58
2023-04-14T06:38:50.687Z,5.58
2023-04-14T06:39:32.312Z,5.63
2023-04-14T06:40:13.975Z,5.72
2023-04-14T06:40:55.619Z,5.87
2023-04-14T06:41:37.236Z,6.03
2023-04-14T06:42:19.381Z,6.20
2023-04-14T06:43:01.097Z,6.26
2023-04-14T06:43:43.120Z,6.40
2023-04-14T06:44:24.840Z,6.52
2023-04-14T06:45:06.928Z,6.62
2023-04-14T06:45:50.688Z,6.62
2023-04-14T06:46:35.924Z,6.50
2023-04-14T06:47:19.680Z,6.95
2023-04-14T06:48:01.294Z,7.06
2023-04-14T06:48:43.638Z,7.08
2023-04-14T06:49:25.313Z,7.25
2023-04-14T06:50:07.309Z,7.34
2023-04-14T06:50:56.278Z,7.51
2023-04-14T06:51:39.231Z,7.65
2023-04-14T06:52:20.886Z,7.74
2023-04-14T06:53:02.987Z,7.80
2023-04-14T06:53:45.024Z,7.88
2023-04-14T06:54:26.820Z,7.67
2023-04-14T06:55:09.008Z,8.11
2023-04-14T06:56:08.929Z,8.20
2023-04-14T06:56:50.789Z,8.41
2023-04-14T06:57:32.438Z,8.23
2023-04-14T06:58:14.169Z,8.54
2023-04-14T06:58:55.874Z,8.64
2023-04-14T06:59:37.697Z,8.80
2023-04-14T07:00:19.602Z,8.90
2023-04-14T07:01:02.817Z,8.89
2023-04-14T07:01:44.671Z,9.05
2023-04-14T07:02:26.669Z,8.94
2023-04-14T07:03:09.327Z,8.83
2023-04-14T07:03:51.107Z,9.25
2023-04-14T07:04:32.992Z,9.36
2023-04-14T07:05:15.001Z,9.52
2023-04-14T07:06:08.225Z,9.67
2023-04-14T07:06:49.871Z,9.68
2023-04-14T07:07:37.380Z,9.76
2023-04-14T07:08:20.178Z,9.93
2023-04-14T07:09:01.845Z,10.07
2023-04-14T07:09:43.664Z,10.11
2023-04-14T07:10:25.376Z,10.23
2023-04-14T07:11:10.331Z,10.35
2023-04-14T07:11:53.497Z,10.47
2023-04-14T07:12:35.438Z,10.30
2023-04-14T07:13:17.122Z,10.48
2023-04-14T07:13:58.893Z,10.55
2023-04-14T07:14:41.332Z,10.55
2023-04-14T07:15:22.960Z,10.42
2023-04-14T07:16:06.582Z,10.37
2023-04-14T07:16:48.465Z,9.96
2023-04-14T07:17:30.517Z,9.73
2023-04-14T07:18:12.367Z,9.65
2023-04-14T07:18:54.072Z,9.47
2023-04-14T07:19:35.785Z,9.51
2023-04-14T07:20:17.479Z,9.58
2023-04-14T07:20:59.787Z,9.56
2023-04-14T07:21:41.706Z,9.56
2023-04-14T07:22:23.369Z,9.59
2023-04-14T07:23:04.949Z,9.66
2023-04-14T07:23:46.596Z,9.79
2023-04-14T07:24:28.237Z,9.96
2023-04-14T07:25:10.163Z,10.09
2023-04-14T07:25:54.015Z,10.12
2023-04-14T07:26:35.652Z,10.21
2023-04-14T07:27:17.327Z,10.25
2023-04-14T07:28:04.626Z,10.23
2023-04-14T07:28:47.118Z,10.21
2023-04-14T07:29:29.340Z,10.28
2023-04-14T07:30:11.544Z,10.07
2023-04-14T07:30:53.569Z,10.11
2023-04-14T07:31:37.952Z,10.08
2023-04-14T07:32:19.761Z,9.98
2023-04-14T07:33:02.371Z,10.03
2023-04-14T07:33:44.137Z,10.01
2023-04-14T07:34:25.970Z,9.97
2023-04-14T07:35:10.808Z,9.86
2023-04-14T07:36:01.893Z,9.91
2023-04-14T07:36:45.432Z,9.94
2023-04-14T07:37:27.170Z,10.00
2023-04-14T07:38:08.815Z,9.99
2023-04-14T07:38:51.514Z,10.08
2023-04-14T07:39:33.468Z,9.95
2023-04-14T07:40:15.886Z,9.93
2023-04-14T07:40:57.525Z,9.92
2023-04-14T07:41:39.176Z,10.08
2023-04-14T07:42:20.870Z,10.07
2023-04-14T07:43:02.802Z,10.19
2023-04-14T07:43:44.544Z,10.21
2023-04-14T07:44:26.390Z,10.18
2023-04-14T07:45:08.570Z,10.07
2023-04-14T07:45:52.410Z,10.47
2023-04-14T07:46:34.143Z,10.59
2023-04-14T07:47:16.180Z,10.64
2023-04-14T07:47:58.285Z,10.81
2023-04-14T07:48:40.270Z,10.85
2023-04-14T07:49:21.866Z,10.86
2023-04-14T07:50:03.862Z,10.80
2023-04-14T07:50:48.263Z,10.82
2023-04-14T07:51:29.878Z,11.04
2023-04-14T07:52:12.574Z,11.07
2023-04-14T07:52:55.295Z,11.12
2023-04-14T07:53:42.212Z,11.02
2023-04-14T07:54:24.360Z,10.97
2023-04-14T07:55:06.196Z,10.95
2023-04-14T07:55:47.841Z,11.03
2023-04-14T07:56:29.477Z,10.84
2023-04-14T07:57:11.270Z,11.12
2023-04-14T07:57:52.924Z,11.10
2023-04-14T07:58:34.539Z,11.26
2023-04-14T07:59:16.391Z,11.34
2023-04-14T07:59:58.061Z,11.30
2023-04-14T08:00:39.694Z,11.21
2023-04-14T08:01:21.354Z,11.31
2023-04-14T08:02:03.092Z,11.48
2023-04-14T08:02:45.067Z,11.43
2023-04-14T08:03:27.100Z,11.25
2023-04-14T08:04:09.284Z,11.34
2023-04-14T08:04:51.023Z,11.22
2023-04-14T08:05:32.763Z,11.23
2023-04-14T08:06:14.457Z,11.19
2023-04-14T08:06:56.448Z,11.35
2023-04-14T08:07:38.681Z,11.45
2023-04-14T08:08:20.393Z,11.46
2023-04-14T08:09:02.515Z,11.51
2023-04-14T08:09:44.504Z,11.57
2023-04-14T08:10:26.285Z,11.64
2023-04-14T08:11:07.933Z,11.82
2023-04-14T08:11:49.528Z,11.92
2023-04-14T08:12:31.465Z,11.87
2023-04-14T08:13:13.066Z,11.92
2023-04-14T08:13:54.678Z,11.88
2023-04-14T08:14:36.401Z,11.78
2023-04-14T08:15:18.268Z,11.78
2023-04-14T08:15:59.956Z,11.86
2023-04-14T08:16:41.885Z,11.78
2023-04-14T08:17:24.418Z,11.99
2023-04-14T08:18:06.570Z,12.08
2023-04-14T08:18:48.997Z,12.30
2023-04-14T08:19:31.604Z,12.47
2023-04-14T08:20:13.336Z,12.51
2023-04-14T08:20:54.971Z,12.51
2023-04-14T08:21:36.710Z,12.46
2023-04-14T08:22:18.548Z,12.27
2023-04-14T08:23:00.267Z,12.23
2023-04-14T08:23:42.104Z,12.10
2023-04-14T08:24:23.812Z,12.12
2023-04-14T08:25:06.618Z,12.22
2023-04-14T08:25:48.513Z,12.33
2023-04-14T08:26:30.484Z,12.36
2023-04-14T08:27:12.089Z,12.35
2023-04-14T08:27:53.757Z,12.52
2023-04-14T08:28:35.673Z,12.53
2023-04-14T08:29:17.346Z,12.45
2023-04-14T08:29:59.063Z,12.57
2023-04-14T08:30:41.368Z,12.67
2023-04-14T08:31:24.464Z,12.83
2023-04-14T08:32:06.439Z,12.84
2023-04-14T08:32:48.877Z,12.86
2023-04-14T08:33:30.742Z,13.09
2023-04-14T08:34:12.499Z,13.10
2023-04-14T08:35:37.798Z,13.11
2023-04-14T08:36:01.179Z,13.24
2023-04-14T08:36:42.882Z,13.22
2023-04-14T08:37:24.532Z,13.15
2023-04-14T08:38:06.261Z,12.90
2023-04-14T08:38:47.996Z,12.86
2023-04-14T08:39:29.688Z,12.85
2023-04-14T08:40:12.340Z,12.92
2023-04-14T08:40:56.334Z,13.11
2023-04-14T08:41:39.109Z,13.14
2023-04-14T08:42:21.932Z,13.15
2023-04-14T08:43:03.914Z,13.03
2023-04-14T08:43:46.245Z,13.01
2023-04-14T08:44:29.278Z,13.02
2023-04-14T08:45:12.169Z,13.03
2023-04-14T08:45:55.438Z,13.13
2023-04-14T08:46:37.204Z,13.23
2023-04-14T08:47:21.656Z,13.26
2023-04-14T08:48:04.763Z,13.53
2023-04-14T08:48:50.321Z,13.74
2023-04-14T08:49:44.013Z,13.95
2023-04-14T08:50:31.982Z,14.16
2023-04-14T08:51:34.058Z,13.87
2023-04-14T08:52:18.162Z,13.56
2023-04-14T08:53:04.160Z,13.32
2023-04-14T08:53:48.288Z,13.24
2023-04-14T08:54:31.571Z,13.06
2023-04-14T08:55:15.497Z,13.08
2023-04-14T08:56:02.314Z,13.34
2023-04-14T08:56:44.128Z,13.36
2023-04-14T08:57:26.859Z,13.30
2023-04-14T08:58:12.072Z,13.35
2023-04-14T08:58:54.134Z,13.54
2023-04-14T08:59:36.545Z,13.47
2023-04-14T09:00:19.706Z,13.30
2023-04-14T09:01:03.264Z,13.32
2023-04-14T09:01:46.482Z,13.39
2023-04-14T09:02:28.500Z,13.52
2023-04-14T09:03:11.535Z,13.65
2023-04-14T09:03:54.398Z,13.84
2023-04-14T09:04:37.551Z,13.93
2023-04-14T09:05:19.747Z,14.01
2023-04-14T09:06:02.659Z,14.10
2023-04-14T09:06:44.331Z,13.92
2023-04-14T09:07:28.904Z,13.90
2023-04-14T09:08:12.392Z,13.79
2023-04-14T09:08:54.244Z,13.68
2023-04-14T09:09:36.433Z,13.64
2023-04-14T09:10:20.904Z,13.58
2023-04-14T09:11:03.952Z,13.61
2023-04-14T09:11:46.365Z,13.70
2023-04-14T09:12:28.801Z,13.77
2023-04-14T09:13:12.590Z,13.76
2023-04-14T09:13:56.826Z,13.70
2023-04-14T09:14:39.882Z,13.74
2023-04-14T09:15:21.717Z,13.90
2023-04-14T09:16:03.661Z,13.95
2023-04-14T09:16:48.742Z,13.98
2023-04-14T09:17:31.841Z,14.21
2023-04-14T09:18:13.625Z,14.47
2023-04-14T09:18:57.517Z,14.37
2023-04-14T09:20:34.768Z,14.27
2023-04-14T09:21:31.069Z,14.37
2023-04-14T09:21:55.078Z,14.51
2023-04-14T09:22:37.072Z,14.64
2023-04-14T09:23:21.659Z,14.77
2023-04-14T09:24:04.007Z,14.90
2023-04-14T09:24:45.696Z,14.80
2023-04-14T09:25:27.363Z,14.67
2023-04-14T09:26:10.367Z,14.60
2023-04-14T09:26:52.880Z,14.38
2023-04-14T09:27:34.815Z,14.41
2023-04-14T09:28:16.571Z,14.31
2023-04-14T09:28:58.641Z,14.25
2023-04-14T09:29:41.555Z,14.36
2023-04-14T09:30:23.964Z,14.29
2023-04-14T09:31:06.008Z,14.28
2023-04-14T09:31:48.013Z,14.41
2023-04-14T09:32:30.649Z,14.62
2023-04-14T09:34:17.049Z,15.34
2023-04-14T09:34:58.859Z,15.09
2023-04-14T09:35:45.788Z,15.28
2023-04-14T09:36:29.051Z,15.21
2023-04-14T09:37:11.040Z,15.18
2023-04-14T09:37:52.695Z,15.09
2023-04-14T09:38:38.798Z,14.86
2023-04-14T09:39:20.497Z,14.74
2023-04-14T09:40:02.177Z,14.86
2023-04-14T09:40:44.962Z,14.73
2023-04-14T09:41:27.532Z,14.80
2023-04-14T09:42:09.176Z,14.83
2023-04-14T09:42:51.446Z,14.92
2023-04-14T09:43:33.279Z,14.81